sensor_id;sensor_type;location;lat;lon;timestamp;pressure;altitude;pressure_sealevel;temperature;humidity
45939;BME280;31650;48.818;9.116;2023-05-21T00:08:56;97598.41;;;14.23;100.00
45939;BME280;31650;48.818;9.116;2023-05-21T00:23:56;97594.00;;;14.00;100.00
45939;BME280;31650;48.818;9.116;2023-05-21T00:38:57;97588.38;;;13.73;100.00
45939;BME280;31650;48.818;9.116;2023-05-21T00:53:58;97568.63;;;13.66;100.00
45939;BME280;31650;48.818;9.116;2023-05-21T01:08:58;97572.59;;;13.75;100.00
45939;BME280;31650;48.818;9.116;2023-05-21T01:23:58;97566.31;;;13.57;100.00
45939;BME280;31650;48.818;9.116;2023-05-21T01:53:59;97556.09;;;13.19;100.00
45939;BME280;31650;48.818;9.116;2023-05-21T02:08:59;97556.25;;;12.95;100.00
45939;BME280;31650;48.818;9.116;2023-05-21T02:23:59;97556.72;;;12.75;100.00
45939;BME280;31650;48.818;9.116;2023-05-21T02:38:59;97548.63;;;12.52;100.00
45939;BME280;31650;48.818;9.116;2023-05-21T02:54:00;97545.44;;;12.43;100.00
45939;BME280;31650;48.818;9.116;2023-05-21T03:09:01;97538.19;;;12.20;100.00
45939;BME280;31650;48.818;9.116;2023-05-21T03:24:02;97535.47;;;12.20;100.00
45939;BME280;31650;48.818;9.116;2023-05-21T03:39:02;97528.94;;;12.21;100.00
45939;BME280;31650;48.818;9.116;2023-05-21T03:54:03;97536.19;;;12.15;100.00
45939;BME280;31650;48.818;9.116;2023-05-21T04:09:03;97556.75;;;12.23;100.00
45939;BME280;31650;48.818;9.116;2023-05-21T04:24:04;97560.66;;;12.39;100.00
45939;BME280;31650;48.818;9.116;2023-05-21T04:39:04;97572.47;;;12.73;100.00
45939;BME280;31650;48.818;9.116;2023-05-21T04:54:06;97575.34;;;12.95;100.00
45939;BME280;31650;48.818;9.116;2023-05-21T05:09:06;97584.91;;;13.27;100.00
45939;BME280;31650;48.818;9.116;2023-05-21T05:24:07;97568.31;;;13.62;100.00
45939;BME280;31650;48.818;9.116;2023-05-21T05:39:07;97552.88;;;14.12;100.00
45939;BME280;31650;48.818;9.116;2023-05-21T05:54:08;97553.06;;;14.49;100.00
45939;BME280;31650;48.818;9.116;2023-05-21T06:09:08;97549.09;;;15.11;100.00
45939;BME280;31650;48.818;9.116;2023-05-21T06:24:08;97533.31;;;15.98;100.00
45939;BME280;31650;48.818;9.116;2023-05-21T06:39:08;97518.31;;;17.76;100.00
45939;BME280;31650;48.818;9.116;2023-05-21T06:54:09;97517.81;;;17.49;98.71
45939;BME280;31650;48.818;9.116;2023-05-21T07:09:09;97527.38;;;17.72;98.06
45939;BME280;31650;48.818;9.116;2023-05-21T07:24:09;97514.94;;;18.80;86.89
45939;BME280;31650;48.818;9.116;2023-05-21T07:39:10;97523.38;;;20.21;78.58
45939;BME280;31650;48.818;9.116;2023-05-21T07:54:10;97508.41;;;20.70;70.14
45939;BME280;31650;48.818;9.116;2023-05-21T08:09:11;97497.34;;;22.06;63.59
45939;BME280;31650;48.818;9.116;2023-05-21T08:24:11;97490.63;;;22.90;58.92
45939;BME280;31650;48.818;9.116;2023-05-21T08:39:11;97496.47;;;25.25;52.40
45939;BME280;31650;48.818;9.116;2023-05-21T08:54:12;97496.56;;;26.37;47.82
45939;BME280;31650;48.818;9.116;2023-05-21T09:09:16;97500.59;;;25.19;51.00
45939;BME280;31650;48.818;9.116;2023-05-21T09:24:21;97494.78;;;25.93;49.94
45939;BME280;31650;48.818;9.116;2023-05-21T09:39:27;97503.97;;;24.98;51.25
45939;BME280;31650;48.818;9.116;2023-05-21T09:54:31;97511.81;;;24.30;53.44
45939;BME280;31650;48.818;9.116;2023-05-21T10:09:32;97508.03;;;25.97;51.01
45939;BME280;31650;48.818;9.116;2023-05-21T10:24:32;97502.72;;;26.51;48.42
45939;BME280;31650;48.818;9.116;2023-05-21T10:39:34;97499.09;;;27.31;44.89
45939;BME280;31650;48.818;9.116;2023-05-21T11:09:49;97480.75;;;26.79;45.16
45939;BME280;31650;48.818;9.116;2023-05-21T11:24:49;97483.25;;;26.72;45.02
45939;BME280;31650;48.818;9.116;2023-05-21T11:39:50;97473.69;;;27.45;43.04
45939;BME280;31650;48.818;9.116;2023-05-21T11:54:51;97473.59;;;27.53;43.34
45939;BME280;31650;48.818;9.116;2023-05-21T12:09:54;97476.19;;;27.25;40.16
45939;BME280;31650;48.818;9.116;2023-05-21T12:24:55;97476.38;;;28.57;42.72
45939;BME280;31650;48.818;9.116;2023-05-21T12:39:58;97472.97;;;28.39;42.03
45939;BME280;31650;48.818;9.116;2023-05-21T12:55:00;97466.66;;;27.26;42.29
45939;BME280;31650;48.818;9.116;2023-05-21T13:10:01;97471.06;;;27.06;42.41
45939;BME280;31650;48.818;9.116;2023-05-21T13:25:01;97465.38;;;27.57;41.08
45939;BME280;31650;48.818;9.116;2023-05-21T13:40:02;97464.19;;;27.58;41.82
45939;BME280;31650;48.818;9.116;2023-05-21T13:55:03;97467.25;;;28.60;38.78
45939;BME280;31650;48.818;9.116;2023-05-21T14:10:03;97458.16;;;28.87;37.25
45939;BME280;31650;48.818;9.116;2023-05-21T14:25:04;97447.38;;;29.14;36.22
45939;BME280;31650;48.818;9.116;2023-05-21T14:40:04;97437.66;;;29.52;35.59
45939;BME280;31650;48.818;9.116;2023-05-21T14:55:07;97427.81;;;30.02;34.39
45939;BME280;31650;48.818;9.116;2023-05-21T15:10:07;97435.97;;;29.07;32.85
45939;BME280;31650;48.818;9.116;2023-05-21T15:25:08;97428.81;;;28.57;32.46
45939;BME280;31650;48.818;9.116;2023-05-21T15:40:09;97414.25;;;29.60;32.77
45939;BME280;31650;48.818;9.116;2023-05-21T15:55:10;97412.03;;;29.66;35.70
45939;BME280;31650;48.818;9.116;2023-05-21T16:10:14;97412.66;;;31.29;34.41
45939;BME280;31650;48.818;9.116;2023-05-21T16:25:18;97414.41;;;32.72;32.23
45939;BME280;31650;48.818;9.116;2023-05-21T16:40:19;97409.34;;;30.33;35.71
45939;BME280;31650;48.818;9.116;2023-05-21T16:55:22;97410.66;;;28.63;37.43
45939;BME280;31650;48.818;9.116;2023-05-21T17:10:23;97414.16;;;27.98;39.19
45939;BME280;31650;48.818;9.116;2023-05-21T17:25:24;97408.41;;;26.83;43.04
45939;BME280;31650;48.818;9.116;2023-05-21T17:40:31;97407.97;;;25.91;46.05
45939;BME280;31650;48.818;9.116;2023-05-21T17:55:58;97423.91;;;23.86;52.42
45939;BME280;31650;48.818;9.116;2023-05-21T18:11:06;97435.16;;;22.68;57.13
45939;BME280;31650;48.818;9.116;2023-05-21T18:26:18;97448.78;;;21.86;62.29
45939;BME280;31650;48.818;9.116;2023-05-21T18:41:19;97439.41;;;21.36;64.24
45939;BME280;31650;48.818;9.116;2023-05-21T18:56:21;97450.75;;;20.26;70.62
45939;BME280;31650;48.818;9.116;2023-05-21T19:11:21;97469.09;;;19.34;78.50
45939;BME280;31650;48.818;9.116;2023-05-21T19:26:22;97483.03;;;18.64;86.71
45939;BME280;31650;48.818;9.116;2023-05-21T19:42:09;97500.72;;;17.93;96.27
45939;BME280;31650;48.818;9.116;2023-05-21T19:57:13;97510.09;;;17.56;100.00
45939;BME280;31650;48.818;9.116;2023-05-21T20:12:14;97513.94;;;17.19;100.00
45939;BME280;31650;48.818;9.116;2023-05-21T20:27:15;97512.53;;;16.91;100.00
45939;BME280;31650;48.818;9.116;2023-05-21T20:42:21;97525.31;;;16.44;100.00
45939;BME280;31650;48.818;9.116;2023-05-21T20:57:30;97525.66;;;15.95;100.00
45939;BME280;31650;48.818;9.116;2023-05-21T21:12:34;97537.31;;;15.80;100.00
45939;BME280;31650;48.818;9.116;2023-05-21T21:27:35;97543.09;;;15.46;100.00
45939;BME280;31650;48.818;9.116;2023-05-21T21:42:41;97555.59;;;15.05;100.00
45939;BME280;31650;48.818;9.116;2023-05-21T21:57:42;97569.72;;;14.69;100.00
45939;BME280;31650;48.818;9.116;2023-05-21T22:12:43;97576.88;;;14.70;100.00
45939;BME280;31650;48.818;9.116;2023-05-21T22:27:45;97574.03;;;14.21;100.00
45939;BME280;31650;48.818;9.116;2023-05-21T22:42:46;97577.97;;;14.09;100.00
45939;BME280;31650;48.818;9.116;2023-05-21T22:57:47;97577.06;;;13.81;100.00
45939;BME280;31650;48.818;9.116;2023-05-21T23:12:49;97574.91;;;13.66;100.00
45939;BME280;31650;48.818;9.116;2023-05-21T23:27:49;97582.69;;;13.40;100.00
45939;BME280;31650;48.818;9.116;2023-05-21T23:42:53;97581.00;;;13.22;100.00
45939;BME280;31650;48.818;9.116;2023-05-21T23:57:57;97590.50;;;13.20;100.00
